sensor_id;sensor_type;location;lat;lon;timestamp;temperature;humidity
11536;DHT22;5824;49.336;8.652;2024-02-26T00:01:25;10.00;1.00
11536;DHT22;5824;49.336;8.652;2024-02-26T00:03:51;10.00;1.00
11536;DHT22;5824;49.336;8.652;2024-02-26T00:06:17;10.00;1.00
11536;DHT22;5824;49.336;8.652;2024-02-26T00:08:43;10.10;1.00
11536;DHT22;5824;49.336;8.652;2024-02-26T00:11:09;10.10;1.00
11536;DHT22;5824;49.336;8.652;2024-02-26T00:13:35;10.10;1.00
11536;DHT22;5824;49.336;8.652;2024-02-26T00:16:02;10.00;1.00
11536;DHT22;5824;49.336;8.652;2024-02-26T00:18:27;10.10;1.00
11536;DHT22;5824;49.336;8.652;2024-02-26T00:20:53;10.10;1.00
11536;DHT22;5824;49.336;8.652;2024-02-26T00:23:19;10.10;1.00
11536;DHT22;5824;49.336;8.652;2024-02-26T00:25:44;10.10;1.00
11536;DHT22;5824;49.336;8.652;2024-02-26T00:28:10;10.00;1.00
11536;DHT22;5824;49.336;8.652;2024-02-26T00:30:36;10.00;1.00
11536;DHT22;5824;49.336;8.652;2024-02-26T00:33:01;10.00;1.00
11536;DHT22;5824;49.336;8.652;2024-02-26T00:35:27;10.00;1.00
11536;DHT22;5824;49.336;8.652;2024-02-26T00:37:52;10.00;1.00
11536;DHT22;5824;49.336;8.652;2024-02-26T00:40:18;10.10;1.00
11536;DHT22;5824;49.336;8.652;2024-02-26T00:42:44;10.10;1.00
11536;DHT22;5824;49.336;8.652;2024-02-26T00:45:11;10.00;1.00
11536;DHT22;5824;49.336;8.652;2024-02-26T00:47:37;10.00;1.00
11536;DHT22;5824;49.336;8.652;2024-02-26T00:50:03;10.00;1.00
11536;DHT22;5824;49.336;8.652;2024-02-26T00:52:29;10.00;1.00
11536;DHT22;5824;49.336;8.652;2024-02-26T00:54:54;10.00;1.00
11536;DHT22;5824;49.336;8.652;2024-02-26T00:57:20;10.00;1.00
11536;DHT22;5824;49.336;8.652;2024-02-26T00:59:45;9.90;1.00
11536;DHT22;5824;49.336;8.652;2024-02-26T01:02:11;9.90;1.00
11536;DHT22;5824;49.336;8.652;2024-02-26T01:04:36;11.80;1.00
11536;DHT22;5824;49.336;8.652;2024-02-26T01:07:02;9.90;1.00
11536;DHT22;5824;49.336;8.652;2024-02-26T01:09:28;9.90;1.00
11536;DHT22;5824;49.336;8.652;2024-02-26T01:11:53;9.90;1.00
11536;DHT22;5824;49.336;8.652;2024-02-26T01:14:19;9.90;1.00
11536;DHT22;5824;49.336;8.652;2024-02-26T01:16:44;9.90;1.00
11536;DHT22;5824;49.336;8.652;2024-02-26T01:19:10;9.80;1.00
11536;DHT22;5824;49.336;8.652;2024-02-26T01:21:35;9.80;1.00
11536;DHT22;5824;49.336;8.652;2024-02-26T01:24:01;9.70;1.00
11536;DHT22;5824;49.336;8.652;2024-02-26T01:26:26;9.70;1.00
11536;DHT22;5824;49.336;8.652;2024-02-26T01:28:52;9.60;1.00
11536;DHT22;5824;49.336;8.652;2024-02-26T01:31:17;9.60;1.00
11536;DHT22;5824;49.336;8.652;2024-02-26T01:33:43;9.60;1.00
11536;DHT22;5824;49.336;8.652;2024-02-26T01:36:08;9.60;1.00
11536;DHT22;5824;49.336;8.652;2024-02-26T01:38:34;9.50;1.00
11536;DHT22;5824;49.336;8.652;2024-02-26T01:40:59;9.50;1.00
11536;DHT22;5824;49.336;8.652;2024-02-26T01:43:25;9.60;1.00
11536;DHT22;5824;49.336;8.652;2024-02-26T01:45:50;9.60;1.00
11536;DHT22;5824;49.336;8.652;2024-02-26T01:48:16;9.50;1.00
11536;DHT22;5824;49.336;8.652;2024-02-26T01:50:42;9.50;1.00
11536;DHT22;5824;49.336;8.652;2024-02-26T01:53:08;9.50;1.00
11536;DHT22;5824;49.336;8.652;2024-02-26T01:55:34;9.50;1.00
11536;DHT22;5824;49.336;8.652;2024-02-26T01:58:00;9.50;1.00
11536;DHT22;5824;49.336;8.652;2024-02-26T02:00:26;9.40;1.00
11536;DHT22;5824;49.336;8.652;2024-02-26T02:02:51;9.50;1.00
11536;DHT22;5824;49.336;8.652;2024-02-26T02:05:18;9.40;1.00
11536;DHT22;5824;49.336;8.652;2024-02-26T02:07:45;9.40;1.00
11536;DHT22;5824;49.336;8.652;2024-02-26T02:10:13;9.40;1.00
11536;DHT22;5824;49.336;8.652;2024-02-26T02:12:39;9.40;1.00
11536;DHT22;5824;49.336;8.652;2024-02-26T02:15:06;9.40;1.00
11536;DHT22;5824;49.336;8.652;2024-02-26T02:17:31;9.40;1.00
11536;DHT22;5824;49.336;8.652;2024-02-26T02:19:57;8.70;1.00
11536;DHT22;5824;49.336;8.652;2024-02-26T02:22:22;9.40;1.00
11536;DHT22;5824;49.336;8.652;2024-02-26T02:24:52;9.40;1.00
11536;DHT22;5824;49.336;8.652;2024-02-26T02:27:18;9.40;1.00
11536;DHT22;5824;49.336;8.652;2024-02-26T02:29:44;9.40;1.00
11536;DHT22;5824;49.336;8.652;2024-02-26T02:32:10;9.30;1.00
11536;DHT22;5824;49.336;8.652;2024-02-26T02:34:36;9.30;1.00
11536;DHT22;5824;49.336;8.652;2024-02-26T02:37:01;9.40;1.00
11536;DHT22;5824;49.336;8.652;2024-02-26T02:39:27;9.40;1.00
11536;DHT22;5824;49.336;8.652;2024-02-26T02:41:52;9.40;1.00
11536;DHT22;5824;49.336;8.652;2024-02-26T02:44:18;9.40;1.00
11536;DHT22;5824;49.336;8.652;2024-02-26T02:46:43;9.30;1.00
11536;DHT22;5824;49.336;8.652;2024-02-26T02:49:09;9.40;1.00
11536;DHT22;5824;49.336;8.652;2024-02-26T02:51:36;9.40;1.00
11536;DHT22;5824;49.336;8.652;2024-02-26T02:54:02;9.30;1.00
11536;DHT22;5824;49.336;8.652;2024-02-26T02:56:27;9.30;1.00
11536;DHT22;5824;49.336;8.652;2024-02-26T02:58:53;9.30;1.00
11536;DHT22;5824;49.336;8.652;2024-02-26T03:01:18;9.40;1.00
11536;DHT22;5824;49.336;8.652;2024-02-26T03:06:10;9.30;1.00
11536;DHT22;5824;49.336;8.652;2024-02-26T03:08:35;9.30;1.00
11536;DHT22;5824;49.336;8.652;2024-02-26T03:11:05;9.30;1.00
11536;DHT22;5824;49.336;8.652;2024-02-26T03:13:30;9.30;1.00
11536;DHT22;5824;49.336;8.652;2024-02-26T03:15:56;9.20;1.00
11536;DHT22;5824;49.336;8.652;2024-02-26T03:18:22;9.20;1.00
11536;DHT22;5824;49.336;8.652;2024-02-26T03:20:48;9.20;1.00
11536;DHT22;5824;49.336;8.652;2024-02-26T03:23:14;9.20;1.00
11536;DHT22;5824;49.336;8.652;2024-02-26T03:25:42;9.20;1.00
11536;DHT22;5824;49.336;8.652;2024-02-26T03:28:08;9.20;1.00
11536;DHT22;5824;49.336;8.652;2024-02-26T03:30:33;9.30;1.00
11536;DHT22;5824;49.336;8.652;2024-02-26T03:32:59;9.30;1.00
11536;DHT22;5824;49.336;8.652;2024-02-26T03:35:25;9.30;1.00
11536;DHT22;5824;49.336;8.652;2024-02-26T03:37:50;9.20;1.00
11536;DHT22;5824;49.336;8.652;2024-02-26T03:40:17;9.10;1.00
11536;DHT22;5824;49.336;8.652;2024-02-26T03:45:10;9.00;1.00
11536;DHT22;5824;49.336;8.652;2024-02-26T03:47:37;9.00;1.00
11536;DHT22;5824;49.336;8.652;2024-02-26T03:50:04;8.90;1.00
11536;DHT22;5824;49.336;8.652;2024-02-26T03:52:30;8.80;1.00
11536;DHT22;5824;49.336;8.652;2024-02-26T03:54:55;8.80;1.00
11536;DHT22;5824;49.336;8.652;2024-02-26T03:57:21;8.80;1.00
11536;DHT22;5824;49.336;8.652;2024-02-26T03:59:46;8.70;1.00
11536;DHT22;5824;49.336;8.652;2024-02-26T04:02:12;8.80;1.00
11536;DHT22;5824;49.336;8.652;2024-02-26T04:04:37;8.80;1.00
11536;DHT22;5824;49.336;8.652;2024-02-26T04:07:03;8.80;1.00
11536;DHT22;5824;49.336;8.652;2024-02-26T04:09:30;8.80;1.00
11536;DHT22;5824;49.336;8.652;2024-02-26T04:11:56;8.80;1.00
11536;DHT22;5824;49.336;8.652;2024-02-26T04:14:21;8.70;1.00
11536;DHT22;5824;49.336;8.652;2024-02-26T04:16:47;8.70;1.00
11536;DHT22;5824;49.336;8.652;2024-02-26T04:19:16;8.80;1.00
11536;DHT22;5824;49.336;8.652;2024-02-26T04:21:43;8.80;1.00
11536;DHT22;5824;49.336;8.652;2024-02-26T04:24:09;8.80;1.00
11536;DHT22;5824;49.336;8.652;2024-02-26T04:26:34;8.80;1.00
11536;DHT22;5824;49.336;8.652;2024-02-26T04:29:00;8.80;1.00
11536;DHT22;5824;49.336;8.652;2024-02-26T04:31:25;8.80;1.00
11536;DHT22;5824;49.336;8.652;2024-02-26T04:33:51;8.80;1.00
11536;DHT22;5824;49.336;8.652;2024-02-26T04:36:17;8.70;1.00
11536;DHT22;5824;49.336;8.652;2024-02-26T04:38:43;8.70;1.00
11536;DHT22;5824;49.336;8.652;2024-02-26T04:41:09;8.70;1.00
11536;DHT22;5824;49.336;8.652;2024-02-26T04:43:36;8.60;1.00
11536;DHT22;5824;49.336;8.652;2024-02-26T04:46:09;8.60;1.00
11536;DHT22;5824;49.336;8.652;2024-02-26T04:48:37;8.60;1.00
11536;DHT22;5824;49.336;8.652;2024-02-26T04:51:04;8.60;1.00
11536;DHT22;5824;49.336;8.652;2024-02-26T04:53:31;8.60;1.00
11536;DHT22;5824;49.336;8.652;2024-02-26T04:55:56;8.60;1.00
11536;DHT22;5824;49.336;8.652;2024-02-26T04:58:22;8.60;1.00
11536;DHT22;5824;49.336;8.652;2024-02-26T05:00:48;8.60;1.00
11536;DHT22;5824;49.336;8.652;2024-02-26T05:03:13;8.60;1.00
11536;DHT22;5824;49.336;8.652;2024-02-26T05:05:41;8.60;1.00
11536;DHT22;5824;49.336;8.652;2024-02-26T05:08:06;8.60;1.00
11536;DHT22;5824;49.336;8.652;2024-02-26T05:10:33;8.60;1.00
11536;DHT22;5824;49.336;8.652;2024-02-26T05:12:58;8.60;1.00
11536;DHT22;5824;49.336;8.652;2024-02-26T05:15:24;8.60;1.00
11536;DHT22;5824;49.336;8.652;2024-02-26T05:17:49;8.60;1.00
11536;DHT22;5824;49.336;8.652;2024-02-26T05:20:15;8.50;1.00
11536;DHT22;5824;49.336;8.652;2024-02-26T05:22:41;8.50;1.00
11536;DHT22;5824;49.336;8.652;2024-02-26T05:25:07;8.50;1.00
11536;DHT22;5824;49.336;8.652;2024-02-26T05:27:33;8.50;1.00
11536;DHT22;5824;49.336;8.652;2024-02-26T05:29:58;8.50;1.00
11536;DHT22;5824;49.336;8.652;2024-02-26T05:32:24;8.40;1.00
11536;DHT22;5824;49.336;8.652;2024-02-26T05:34:49;8.30;1.00
11536;DHT22;5824;49.336;8.652;2024-02-26T05:37:15;8.30;1.00
11536;DHT22;5824;49.336;8.652;2024-02-26T05:39:40;8.20;1.00
11536;DHT22;5824;49.336;8.652;2024-02-26T05:42:06;8.20;1.00
11536;DHT22;5824;49.336;8.652;2024-02-26T05:44:31;8.20;1.00
11536;DHT22;5824;49.336;8.652;2024-02-26T05:46:57;8.20;1.00
11536;DHT22;5824;49.336;8.652;2024-02-26T05:49:22;8.20;1.00
11536;DHT22;5824;49.336;8.652;2024-02-26T05:51:48;8.20;1.00
11536;DHT22;5824;49.336;8.652;2024-02-26T05:54:13;8.20;1.00
11536;DHT22;5824;49.336;8.652;2024-02-26T05:56:39;8.30;1.00
11536;DHT22;5824;49.336;8.652;2024-02-26T05:59:05;8.30;1.00
11536;DHT22;5824;49.336;8.652;2024-02-26T06:01:30;8.30;1.00
11536;DHT22;5824;49.336;8.652;2024-02-26T06:03:56;8.40;1.00
11536;DHT22;5824;49.336;8.652;2024-02-26T06:06:22;8.30;1.00
11536;DHT22;5824;49.336;8.652;2024-02-26T06:08:49;8.20;1.00
11536;DHT22;5824;49.336;8.652;2024-02-26T06:11:14;8.00;1.00
11536;DHT22;5824;49.336;8.652;2024-02-26T06:13:40;8.00;1.00
11536;DHT22;5824;49.336;8.652;2024-02-26T06:16:07;8.00;1.00
11536;DHT22;5824;49.336;8.652;2024-02-26T06:18:33;7.90;1.00
11536;DHT22;5824;49.336;8.652;2024-02-26T06:20:58;7.90;1.00
11536;DHT22;5824;49.336;8.652;2024-02-26T06:23:24;7.90;1.00
11536;DHT22;5824;49.336;8.652;2024-02-26T06:25:51;7.90;1.00
11536;DHT22;5824;49.336;8.652;2024-02-26T06:28:16;7.90;1.00
11536;DHT22;5824;49.336;8.652;2024-02-26T06:30:42;8.00;1.00
11536;DHT22;5824;49.336;8.652;2024-02-26T06:33:07;8.00;1.00
11536;DHT22;5824;49.336;8.652;2024-02-26T06:35:33;8.00;1.00
11536;DHT22;5824;49.336;8.652;2024-02-26T06:37:58;8.00;1.00
11536;DHT22;5824;49.336;8.652;2024-02-26T06:40:24;8.00;1.00
11536;DHT22;5824;49.336;8.652;2024-02-26T06:42:50;8.00;1.00
11536;DHT22;5824;49.336;8.652;2024-02-26T06:45:16;6.00;1.00
11536;DHT22;5824;49.336;8.652;2024-02-26T06:47:42;8.00;1.00
11536;DHT22;5824;49.336;8.652;2024-02-26T06:50:08;8.00;1.00
11536;DHT22;5824;49.336;8.652;2024-02-26T06:52:34;8.00;1.00
11536;DHT22;5824;49.336;8.652;2024-02-26T06:54:59;8.00;1.00
11536;DHT22;5824;49.336;8.652;2024-02-26T06:57:25;8.10;1.00
11536;DHT22;5824;49.336;8.652;2024-02-26T06:59:51;8.10;1.00
11536;DHT22;5824;49.336;8.652;2024-02-26T07:02:17;8.80;1.00
11536;DHT22;5824;49.336;8.652;2024-02-26T07:04:43;8.20;1.00
11536;DHT22;5824;49.336;8.652;2024-02-26T07:07:08;8.30;1.00
11536;DHT22;5824;49.336;8.652;2024-02-26T07:09:34;8.40;1.00
11536;DHT22;5824;49.336;8.652;2024-02-26T07:11:59;8.40;1.00
11536;DHT22;5824;49.336;8.652;2024-02-26T07:14:25;8.50;1.00
11536;DHT22;5824;49.336;8.652;2024-02-26T07:16:50;8.60;1.00
11536;DHT22;5824;49.336;8.652;2024-02-26T07:19:16;8.60;1.00
11536;DHT22;5824;49.336;8.652;2024-02-26T07:21:42;8.60;1.00
11536;DHT22;5824;49.336;8.652;2024-02-26T07:24:07;8.60;1.00
11536;DHT22;5824;49.336;8.652;2024-02-26T07:26:33;8.60;1.00
11536;DHT22;5824;49.336;8.652;2024-02-26T07:28:59;8.60;1.00
11536;DHT22;5824;49.336;8.652;2024-02-26T07:31:25;8.70;1.00
11536;DHT22;5824;49.336;8.652;2024-02-26T07:33:51;8.70;1.00
11536;DHT22;5824;49.336;8.652;2024-02-26T07:36:16;8.70;1.00
11536;DHT22;5824;49.336;8.652;2024-02-26T07:38:42;8.70;1.00
11536;DHT22;5824;49.336;8.652;2024-02-26T07:41:08;8.70;1.00
11536;DHT22;5824;49.336;8.652;2024-02-26T07:43:34;8.70;1.00
11536;DHT22;5824;49.336;8.652;2024-02-26T07:45:59;8.70;1.00
11536;DHT22;5824;49.336;8.652;2024-02-26T07:48:25;8.90;1.00
11536;DHT22;5824;49.336;8.652;2024-02-26T07:50:50;8.90;1.00
11536;DHT22;5824;49.336;8.652;2024-02-26T07:53:16;9.00;1.00
11536;DHT22;5824;49.336;8.652;2024-02-26T07:55:41;9.00;1.00
11536;DHT22;5824;49.336;8.652;2024-02-26T07:58:07;9.00;1.00
11536;DHT22;5824;49.336;8.652;2024-02-26T08:00:33;8.90;1.00
11536;DHT22;5824;49.336;8.652;2024-02-26T08:02:58;8.70;1.00
11536;DHT22;5824;49.336;8.652;2024-02-26T08:05:24;8.70;1.00
11536;DHT22;5824;49.336;8.652;2024-02-26T08:07:50;8.70;1.00
11536;DHT22;5824;49.336;8.652;2024-02-26T08:10:16;8.80;1.00
11536;DHT22;5824;49.336;8.652;2024-02-26T08:12:41;8.90;1.00
11536;DHT22;5824;49.336;8.652;2024-02-26T08:15:08;8.90;1.00
11536;DHT22;5824;49.336;8.652;2024-02-26T08:17:33;9.00;1.00
11536;DHT22;5824;49.336;8.652;2024-02-26T08:19:59;9.10;1.00
11536;DHT22;5824;49.336;8.652;2024-02-26T08:22:25;9.20;1.00
11536;DHT22;5824;49.336;8.652;2024-02-26T08:24:51;9.40;1.00
11536;DHT22;5824;49.336;8.652;2024-02-26T08:27:16;9.50;1.00
11536;DHT22;5824;49.336;8.652;2024-02-26T08:29:42;9.60;1.00
11536;DHT22;5824;49.336;8.652;2024-02-26T08:32:08;9.60;1.00
11536;DHT22;5824;49.336;8.652;2024-02-26T08:34:34;9.70;1.00
11536;DHT22;5824;49.336;8.652;2024-02-26T08:36:59;9.80;1.00
11536;DHT22;5824;49.336;8.652;2024-02-26T08:39:25;9.90;1.00
11536;DHT22;5824;49.336;8.652;2024-02-26T08:41:51;9.90;1.00
11536;DHT22;5824;49.336;8.652;2024-02-26T08:44:17;10.00;1.00
11536;DHT22;5824;49.336;8.652;2024-02-26T08:46:42;10.00;1.00
11536;DHT22;5824;49.336;8.652;2024-02-26T08:49:08;10.00;1.00
11536;DHT22;5824;49.336;8.652;2024-02-26T08:51:33;10.00;1.00
11536;DHT22;5824;49.336;8.652;2024-02-26T08:53:59;9.90;1.00
11536;DHT22;5824;49.336;8.652;2024-02-26T08:56:24;9.90;1.00
11536;DHT22;5824;49.336;8.652;2024-02-26T08:58:50;10.00;1.00
11536;DHT22;5824;49.336;8.652;2024-02-26T09:01:19;10.10;1.00
11536;DHT22;5824;49.336;8.652;2024-02-26T09:03:44;10.20;1.00
11536;DHT22;5824;49.336;8.652;2024-02-26T09:06:10;10.30;1.00
11536;DHT22;5824;49.336;8.652;2024-02-26T09:08:37;10.30;1.00
11536;DHT22;5824;49.336;8.652;2024-02-26T09:11:03;10.40;1.00
11536;DHT22;5824;49.336;8.652;2024-02-26T09:13:29;10.30;1.00
11536;DHT22;5824;49.336;8.652;2024-02-26T09:15:54;10.20;1.00
11536;DHT22;5824;49.336;8.652;2024-02-26T09:18:20;10.10;1.00
11536;DHT22;5824;49.336;8.652;2024-02-26T09:20:46;10.00;1.00
11536;DHT22;5824;49.336;8.652;2024-02-26T09:23:11;10.10;1.00
11536;DHT22;5824;49.336;8.652;2024-02-26T09:25:37;10.10;1.00
11536;DHT22;5824;49.336;8.652;2024-02-26T09:28:02;10.30;1.00
11536;DHT22;5824;49.336;8.652;2024-02-26T09:30:28;10.20;1.00
11536;DHT22;5824;49.336;8.652;2024-02-26T09:32:54;10.30;1.00
11536;DHT22;5824;49.336;8.652;2024-02-26T09:35:19;10.20;1.00
11536;DHT22;5824;49.336;8.652;2024-02-26T09:37:46;10.40;1.00
11536;DHT22;5824;49.336;8.652;2024-02-26T09:40:14;10.40;1.00
11536;DHT22;5824;49.336;8.652;2024-02-26T09:42:44;10.40;1.00
11536;DHT22;5824;49.336;8.652;2024-02-26T09:45:18;10.40;1.00
11536;DHT22;5824;49.336;8.652;2024-02-26T09:47:45;10.20;1.00
11536;DHT22;5824;49.336;8.652;2024-02-26T09:50:13;10.20;1.00
11536;DHT22;5824;49.336;8.652;2024-02-26T09:52:41;10.30;1.00
11536;DHT22;5824;49.336;8.652;2024-02-26T09:55:08;10.40;1.00
11536;DHT22;5824;49.336;8.652;2024-02-26T09:57:36;10.50;1.00
11536;DHT22;5824;49.336;8.652;2024-02-26T10:00:03;10.70;1.00
11536;DHT22;5824;49.336;8.652;2024-02-26T10:02:31;11.00;1.00
11536;DHT22;5824;49.336;8.652;2024-02-26T10:04:59;12.10;1.00
11536;DHT22;5824;49.336;8.652;2024-02-26T10:07:30;13.20;1.00
11536;DHT22;5824;49.336;8.652;2024-02-26T10:09:56;14.40;1.00
11536;DHT22;5824;49.336;8.652;2024-02-26T10:12:21;15.80;1.00
11536;DHT22;5824;49.336;8.652;2024-02-26T10:14:48;16.60;1.00
11536;DHT22;5824;49.336;8.652;2024-02-26T10:17:14;16.30;1.00
11536;DHT22;5824;49.336;8.652;2024-02-26T10:19:40;15.80;1.00
11536;DHT22;5824;49.336;8.652;2024-02-26T10:22:05;15.90;1.00
11536;DHT22;5824;49.336;8.652;2024-02-26T10:24:31;15.20;1.00
11536;DHT22;5824;49.336;8.652;2024-02-26T10:26:57;15.60;1.00
11536;DHT22;5824;49.336;8.652;2024-02-26T10:29:25;15.90;1.00
11536;DHT22;5824;49.336;8.652;2024-02-26T10:31:51;16.00;1.00
11536;DHT22;5824;49.336;8.652;2024-02-26T10:34:18;16.00;1.00
11536;DHT22;5824;49.336;8.652;2024-02-26T10:36:43;15.60;1.00
11536;DHT22;5824;49.336;8.652;2024-02-26T10:39:13;15.40;1.00
11536;DHT22;5824;49.336;8.652;2024-02-26T10:41:43;15.30;1.00
11536;DHT22;5824;49.336;8.652;2024-02-26T10:44:10;15.30;1.00
11536;DHT22;5824;49.336;8.652;2024-02-26T10:46:40;15.40;1.00
11536;DHT22;5824;49.336;8.652;2024-02-26T10:49:08;16.00;1.00
11536;DHT22;5824;49.336;8.652;2024-02-26T10:51:38;16.40;1.00
11536;DHT22;5824;49.336;8.652;2024-02-26T10:54:04;16.40;1.00
11536;DHT22;5824;49.336;8.652;2024-02-26T10:56:34;16.40;1.00
11536;DHT22;5824;49.336;8.652;2024-02-26T10:59:00;15.90;1.00
11536;DHT22;5824;49.336;8.652;2024-02-26T11:01:27;15.80;1.00
11536;DHT22;5824;49.336;8.652;2024-02-26T11:03:55;15.80;1.00
11536;DHT22;5824;49.336;8.652;2024-02-26T11:06:21;15.60;1.00
11536;DHT22;5824;49.336;8.652;2024-02-26T11:08:48;15.60;1.00
11536;DHT22;5824;49.336;8.652;2024-02-26T11:11:15;15.70;1.00
11536;DHT22;5824;49.336;8.652;2024-02-26T11:13:42;16.10;1.00
11536;DHT22;5824;49.336;8.652;2024-02-26T11:16:11;16.90;1.00
11536;DHT22;5824;49.336;8.652;2024-02-26T11:18:38;16.90;1.00
11536;DHT22;5824;49.336;8.652;2024-02-26T11:21:05;16.30;1.00
11536;DHT22;5824;49.336;8.652;2024-02-26T11:23:33;15.50;1.00
11536;DHT22;5824;49.336;8.652;2024-02-26T11:26:02;15.30;1.00
11536;DHT22;5824;49.336;8.652;2024-02-26T11:28:29;15.10;1.00
11536;DHT22;5824;49.336;8.652;2024-02-26T11:30:55;15.10;1.00
11536;DHT22;5824;49.336;8.652;2024-02-26T11:33:20;15.20;1.00
11536;DHT22;5824;49.336;8.652;2024-02-26T11:35:46;15.20;1.00
11536;DHT22;5824;49.336;8.652;2024-02-26T11:38:21;15.50;1.00
11536;DHT22;5824;49.336;8.652;2024-02-26T11:40:50;15.80;1.00
11536;DHT22;5824;49.336;8.652;2024-02-26T11:43:16;16.10;1.00
11536;DHT22;5824;49.336;8.652;2024-02-26T11:48:25;17.50;1.00
11536;DHT22;5824;49.336;8.652;2024-02-26T11:50:55;15.00;1.00
11536;DHT22;5824;49.336;8.652;2024-02-26T11:58:41;15.40;1.00
11536;DHT22;5824;49.336;8.652;2024-02-26T12:01:36;16.10;1.00
11536;DHT22;5824;49.336;8.652;2024-02-26T12:04:04;17.00;1.00
11536;DHT22;5824;49.336;8.652;2024-02-26T12:06:30;17.10;1.00
11536;DHT22;5824;49.336;8.652;2024-02-26T12:08:56;17.30;1.00
11536;DHT22;5824;49.336;8.652;2024-02-26T12:11:21;17.30;1.00
11536;DHT22;5824;49.336;8.652;2024-02-26T12:13:47;17.20;1.00
11536;DHT22;5824;49.336;8.652;2024-02-26T12:16:38;17.00;1.00
11536;DHT22;5824;49.336;8.652;2024-02-26T12:19:06;16.60;1.00
11536;DHT22;5824;49.336;8.652;2024-02-26T12:21:36;16.50;1.00
11536;DHT22;5824;49.336;8.652;2024-02-26T12:24:13;16.30;1.00
11536;DHT22;5824;49.336;8.652;2024-02-26T12:26:39;16.10;1.00
11536;DHT22;5824;49.336;8.652;2024-02-26T12:29:06;16.00;1.00
11536;DHT22;5824;49.336;8.652;2024-02-26T12:31:34;16.20;1.00
11536;DHT22;5824;49.336;8.652;2024-02-26T12:34:02;16.50;1.00
11536;DHT22;5824;49.336;8.652;2024-02-26T12:36:28;16.60;1.00
11536;DHT22;5824;49.336;8.652;2024-02-26T12:38:54;16.90;1.00
11536;DHT22;5824;49.336;8.652;2024-02-26T12:41:20;17.30;1.00
11536;DHT22;5824;49.336;8.652;2024-02-26T12:43:46;17.70;1.00
11536;DHT22;5824;49.336;8.652;2024-02-26T12:46:11;18.10;1.00
11536;DHT22;5824;49.336;8.652;2024-02-26T12:48:38;18.70;1.00
11536;DHT22;5824;49.336;8.652;2024-02-26T12:51:05;20.00;1.00
11536;DHT22;5824;49.336;8.652;2024-02-26T12:53:31;24.40;1.00
11536;DHT22;5824;49.336;8.652;2024-02-26T12:55:57;24.90;1.00
11536;DHT22;5824;49.336;8.652;2024-02-26T12:58:23;25.30;1.00
11536;DHT22;5824;49.336;8.652;2024-02-26T13:00:54;24.80;1.00
11536;DHT22;5824;49.336;8.652;2024-02-26T13:03:21;24.80;1.00
11536;DHT22;5824;49.336;8.652;2024-02-26T13:05:47;25.00;1.00
11536;DHT22;5824;49.336;8.652;2024-02-26T13:08:21;25.30;1.00
11536;DHT22;5824;49.336;8.652;2024-02-26T13:10:48;26.10;1.00
11536;DHT22;5824;49.336;8.652;2024-02-26T13:13:17;26.20;1.00
11536;DHT22;5824;49.336;8.652;2024-02-26T13:15:43;26.60;1.00
11536;DHT22;5824;49.336;8.652;2024-02-26T13:18:15;26.70;1.00
11536;DHT22;5824;49.336;8.652;2024-02-26T13:20:41;27.70;1.00
11536;DHT22;5824;49.336;8.652;2024-02-26T13:23:11;27.50;1.00
11536;DHT22;5824;49.336;8.652;2024-02-26T13:25:38;27.40;1.00
11536;DHT22;5824;49.336;8.652;2024-02-26T13:28:08;26.40;1.00
11536;DHT22;5824;49.336;8.652;2024-02-26T13:30:35;25.50;1.00
11536;DHT22;5824;49.336;8.652;2024-02-26T13:33:08;23.20;1.00
11536;DHT22;5824;49.336;8.652;2024-02-26T13:35:34;22.90;1.00
11536;DHT22;5824;49.336;8.652;2024-02-26T13:38:00;21.50;1.00
11536;DHT22;5824;49.336;8.652;2024-02-26T13:40:26;20.80;1.00
11536;DHT22;5824;49.336;8.652;2024-02-26T13:42:51;20.30;1.00
11536;DHT22;5824;49.336;8.652;2024-02-26T13:45:18;20.30;1.00
11536;DHT22;5824;49.336;8.652;2024-02-26T13:47:43;20.00;1.00
11536;DHT22;5824;49.336;8.652;2024-02-26T13:50:09;19.50;1.00
11536;DHT22;5824;49.336;8.652;2024-02-26T13:52:35;18.90;1.00
11536;DHT22;5824;49.336;8.652;2024-02-26T13:55:00;18.70;1.00
11536;DHT22;5824;49.336;8.652;2024-02-26T13:57:27;18.70;1.00
11536;DHT22;5824;49.336;8.652;2024-02-26T13:59:54;18.40;1.00
11536;DHT22;5824;49.336;8.652;2024-02-26T14:02:19;18.20;1.00
11536;DHT22;5824;49.336;8.652;2024-02-26T14:04:45;18.20;1.00
11536;DHT22;5824;49.336;8.652;2024-02-26T14:07:12;18.00;1.00
11536;DHT22;5824;49.336;8.652;2024-02-26T14:09:37;18.60;1.00
11536;DHT22;5824;49.336;8.652;2024-02-26T14:12:04;18.90;1.00
11536;DHT22;5824;49.336;8.652;2024-02-26T14:14:30;19.20;1.00
11536;DHT22;5824;49.336;8.652;2024-02-26T14:16:58;19.30;1.00
11536;DHT22;5824;49.336;8.652;2024-02-26T14:19:23;19.00;1.00
11536;DHT22;5824;49.336;8.652;2024-02-26T14:21:49;18.60;1.00
11536;DHT22;5824;49.336;8.652;2024-02-26T14:24:15;17.90;1.00
11536;DHT22;5824;49.336;8.652;2024-02-26T14:26:41;17.80;1.00
11536;DHT22;5824;49.336;8.652;2024-02-26T14:29:07;17.80;1.00
11536;DHT22;5824;49.336;8.652;2024-02-26T14:31:33;17.90;1.00
11536;DHT22;5824;49.336;8.652;2024-02-26T14:33:58;17.70;1.00
11536;DHT22;5824;49.336;8.652;2024-02-26T14:36:24;17.70;1.00
11536;DHT22;5824;49.336;8.652;2024-02-26T14:38:50;17.90;1.00
11536;DHT22;5824;49.336;8.652;2024-02-26T14:41:16;18.20;1.00
11536;DHT22;5824;49.336;8.652;2024-02-26T14:43:41;18.20;1.00
11536;DHT22;5824;49.336;8.652;2024-02-26T14:46:08;18.20;1.00
11536;DHT22;5824;49.336;8.652;2024-02-26T14:48:33;18.20;1.00
11536;DHT22;5824;49.336;8.652;2024-02-26T14:50:59;18.00;1.00
11536;DHT22;5824;49.336;8.652;2024-02-26T14:53:25;18.10;1.00
11536;DHT22;5824;49.336;8.652;2024-02-26T14:55:51;18.30;1.00
11536;DHT22;5824;49.336;8.652;2024-02-26T14:58:17;18.10;1.00
11536;DHT22;5824;49.336;8.652;2024-02-26T15:00:43;17.80;1.00
11536;DHT22;5824;49.336;8.652;2024-02-26T15:03:08;17.80;1.00
11536;DHT22;5824;49.336;8.652;2024-02-26T15:05:34;17.70;1.00
11536;DHT22;5824;49.336;8.652;2024-02-26T15:08:00;17.70;1.00
11536;DHT22;5824;49.336;8.652;2024-02-26T15:10:25;17.50;1.00
11536;DHT22;5824;49.336;8.652;2024-02-26T15:12:51;17.60;1.00
11536;DHT22;5824;49.336;8.652;2024-02-26T15:15:23;17.60;1.00
11536;DHT22;5824;49.336;8.652;2024-02-26T15:17:49;17.70;1.00
11536;DHT22;5824;49.336;8.652;2024-02-26T15:20:15;17.60;1.00
11536;DHT22;5824;49.336;8.652;2024-02-26T15:22:41;17.70;1.00
11536;DHT22;5824;49.336;8.652;2024-02-26T15:25:07;17.80;1.00
11536;DHT22;5824;49.336;8.652;2024-02-26T15:27:33;17.80;1.00
11536;DHT22;5824;49.336;8.652;2024-02-26T15:29:59;17.80;1.00
11536;DHT22;5824;49.336;8.652;2024-02-26T15:32:26;17.60;1.00
11536;DHT22;5824;49.336;8.652;2024-02-26T15:34:55;17.40;1.00
11536;DHT22;5824;49.336;8.652;2024-02-26T15:37:21;17.10;1.00
11536;DHT22;5824;49.336;8.652;2024-02-26T15:39:47;17.00;1.00
11536;DHT22;5824;49.336;8.652;2024-02-26T15:42:13;16.90;1.00
11536;DHT22;5824;49.336;8.652;2024-02-26T15:44:39;16.80;1.00
11536;DHT22;5824;49.336;8.652;2024-02-26T15:47:05;16.60;1.00
11536;DHT22;5824;49.336;8.652;2024-02-26T15:49:31;16.50;1.00
11536;DHT22;5824;49.336;8.652;2024-02-26T15:51:56;16.30;1.00
11536;DHT22;5824;49.336;8.652;2024-02-26T15:54:22;16.20;1.00
11536;DHT22;5824;49.336;8.652;2024-02-26T15:56:47;16.10;1.00
11536;DHT22;5824;49.336;8.652;2024-02-26T15:59:13;16.20;1.00
11536;DHT22;5824;49.336;8.652;2024-02-26T16:01:39;16.10;1.00
11536;DHT22;5824;49.336;8.652;2024-02-26T16:04:04;16.00;1.00
11536;DHT22;5824;49.336;8.652;2024-02-26T16:06:35;16.00;1.00
11536;DHT22;5824;49.336;8.652;2024-02-26T16:09:02;15.90;1.00
11536;DHT22;5824;49.336;8.652;2024-02-26T16:11:28;15.90;1.00
11536;DHT22;5824;49.336;8.652;2024-02-26T16:16:32;15.90;1.00
11536;DHT22;5824;49.336;8.652;2024-02-26T16:19:06;15.80;1.00